sensor_id;sensor_type;location;lat;lon;timestamp;P1;durP1;ratioP1;P2;durP2;ratioP2
64186;SDS011;50491;39.484;-8.540;2023-03-29T00:01:20;5.15;;;2.92;;
64186;SDS011;50491;39.484;-8.540;2023-03-29T00:03:46;12.52;;;2.88;;
64186;SDS011;50491;39.484;-8.540;2023-03-29T00:05:46;4.28;;;2.97;;
64186;SDS011;50491;39.484;-8.540;2023-03-29T00:07:48;8.23;;;3.20;;
64186;SDS011;50491;39.484;-8.540;2023-03-29T00:10:01;6.00;;;2.42;;
64186;SDS011;50491;39.484;-8.540;2023-03-29T00:12:03;3.80;;;2.72;;
64186;SDS011;50491;39.484;-8.540;2023-03-29T00:14:04;3.63;;;2.30;;
64186;SDS011;50491;39.484;-8.540;2023-03-29T00:16:05;4.43;;;2.63;;
64186;SDS011;50491;39.484;-8.540;2023-03-29T00:18:24;3.75;;;2.35;;
64186;SDS011;50491;39.484;-8.540;2023-03-29T00:20:43;5.43;;;2.60;;
64186;SDS011;50491;39.484;-8.540;2023-03-29T00:22:44;4.50;;;2.70;;
64186;SDS011;50491;39.484;-8.540;2023-03-29T00:24:45;4.53;;;2.50;;
64186;SDS011;50491;39.484;-8.540;2023-03-29T00:27:06;5.07;;;2.53;;
64186;SDS011;50491;39.484;-8.540;2023-03-29T00:29:07;4.28;;;2.55;;
64186;SDS011;50491;39.484;-8.540;2023-03-29T00:31:12;5.00;;;2.60;;
64186;SDS011;50491;39.484;-8.540;2023-03-29T00:33:33;4.35;;;2.67;;
64186;SDS011;50491;39.484;-8.540;2023-03-29T00:35:36;9.25;;;3.10;;
64186;SDS011;50491;39.484;-8.540;2023-03-29T00:37:39;4.43;;;3.00;;
64186;SDS011;50491;39.484;-8.540;2023-03-29T00:42:18;4.03;;;3.10;;
64186;SDS011;50491;39.484;-8.540;2023-03-29T00:55:34;7.00;;;3.70;;
64186;SDS011;50491;39.484;-8.540;2023-03-29T00:57:37;5.40;;;3.03;;
64186;SDS011;50491;39.484;-8.540;2023-03-29T00:59:39;9.05;;;3.80;;
64186;SDS011;50491;39.484;-8.540;2023-03-29T01:01:42;5.95;;;2.75;;
64186;SDS011;50491;39.484;-8.540;2023-03-29T01:03:48;6.75;;;3.05;;
64186;SDS011;50491;39.484;-8.540;2023-03-29T01:06:08;5.45;;;3.20;;
64186;SDS011;50491;39.484;-8.540;2023-03-29T01:08:31;10.40;;;3.30;;
64186;SDS011;50491;39.484;-8.540;2023-03-29T01:11:22;6.10;;;3.13;;
64186;SDS011;50491;39.484;-8.540;2023-03-29T01:13:43;5.57;;;3.35;;
64186;SDS011;50491;39.484;-8.540;2023-03-29T01:15:46;6.90;;;2.70;;
64186;SDS011;50491;39.484;-8.540;2023-03-29T01:17:49;7.22;;;3.33;;
64186;SDS011;50491;39.484;-8.540;2023-03-29T01:19:55;5.93;;;3.53;;
64186;SDS011;50491;39.484;-8.540;2023-03-29T01:26:13;9.95;;;3.17;;
64186;SDS011;50491;39.484;-8.540;2023-03-29T01:28:44;10.10;;;3.17;;
64186;SDS011;50491;39.484;-8.540;2023-03-29T01:30:50;5.32;;;3.15;;
64186;SDS011;50491;39.484;-8.540;2023-03-29T01:33:17;5.38;;;3.90;;
64186;SDS011;50491;39.484;-8.540;2023-03-29T01:35:45;6.50;;;3.75;;
64186;SDS011;50491;39.484;-8.540;2023-03-29T01:38:20;7.00;;;3.70;;
64186;SDS011;50491;39.484;-8.540;2023-03-29T01:40:23;10.45;;;3.40;;
64186;SDS011;50491;39.484;-8.540;2023-03-29T01:44:29;10.93;;;3.45;;
64186;SDS011;50491;39.484;-8.540;2023-03-29T01:48:50;4.97;;;3.78;;
64186;SDS011;50491;39.484;-8.540;2023-03-29T01:50:52;5.15;;;3.35;;
64186;SDS011;50491;39.484;-8.540;2023-03-29T01:52:56;5.40;;;3.40;;
64186;SDS011;50491;39.484;-8.540;2023-03-29T01:57:06;5.93;;;3.55;;
64186;SDS011;50491;39.484;-8.540;2023-03-29T01:59:10;7.05;;;3.70;;
64186;SDS011;50491;39.484;-8.540;2023-03-29T02:01:15;8.00;;;4.60;;
64186;SDS011;50491;39.484;-8.540;2023-03-29T02:03:18;6.32;;;3.80;;
64186;SDS011;50491;39.484;-8.540;2023-03-29T02:05:20;4.97;;;3.42;;
64186;SDS011;50491;39.484;-8.540;2023-03-29T02:07:24;5.20;;;3.50;;
64186;SDS011;50491;39.484;-8.540;2023-03-29T02:09:26;5.05;;;3.58;;
64186;SDS011;50491;39.484;-8.540;2023-03-29T02:11:46;5.55;;;3.20;;
64186;SDS011;50491;39.484;-8.540;2023-03-29T02:14:13;7.47;;;3.50;;
64186;SDS011;50491;39.484;-8.540;2023-03-29T02:16:14;10.25;;;3.28;;
64186;SDS011;50491;39.484;-8.540;2023-03-29T02:18:15;6.45;;;3.05;;
64186;SDS011;50491;39.484;-8.540;2023-03-29T02:20:35;6.32;;;3.75;;
64186;SDS011;50491;39.484;-8.540;2023-03-29T02:22:41;7.03;;;4.05;;
64186;SDS011;50491;39.484;-8.540;2023-03-29T02:29:45;6.30;;;3.60;;
64186;SDS011;50491;39.484;-8.540;2023-03-29T02:35:11;4.15;;;3.45;;
64186;SDS011;50491;39.484;-8.540;2023-03-29T02:37:14;5.32;;;3.70;;
64186;SDS011;50491;39.484;-8.540;2023-03-29T02:44:36;7.30;;;4.15;;
64186;SDS011;50491;39.484;-8.540;2023-03-29T02:51:56;7.30;;;4.15;;
64186;SDS011;50491;39.484;-8.540;2023-03-29T02:57:13;7.28;;;4.03;;
64186;SDS011;50491;39.484;-8.540;2023-03-29T03:01:33;8.35;;;4.13;;
64186;SDS011;50491;39.484;-8.540;2023-03-29T03:03:54;4.40;;;3.17;;
64186;SDS011;50491;39.484;-8.540;2023-03-29T03:08:32;4.88;;;3.47;;
64186;SDS011;50491;39.484;-8.540;2023-03-29T03:10:33;5.18;;;3.55;;
64186;SDS011;50491;39.484;-8.540;2023-03-29T03:12:34;4.65;;;3.45;;
64186;SDS011;50491;39.484;-8.540;2023-03-29T03:14:36;4.75;;;3.50;;
64186;SDS011;50491;39.484;-8.540;2023-03-29T03:16:37;6.22;;;3.45;;
64186;SDS011;50491;39.484;-8.540;2023-03-29T03:21:17;9.77;;;4.95;;
64186;SDS011;50491;39.484;-8.540;2023-03-29T03:26:15;8.50;;;4.50;;
64186;SDS011;50491;39.484;-8.540;2023-03-29T03:28:18;8.80;;;5.40;;
64186;SDS011;50491;39.484;-8.540;2023-03-29T03:30:19;10.90;;;5.28;;
64186;SDS011;50491;39.484;-8.540;2023-03-29T03:35:45;14.48;;;5.72;;
64186;SDS011;50491;39.484;-8.540;2023-03-29T03:38:05;8.98;;;5.40;;
64186;SDS011;50491;39.484;-8.540;2023-03-29T03:40:06;8.35;;;4.80;;
64186;SDS011;50491;39.484;-8.540;2023-03-29T03:42:27;9.68;;;5.05;;
64186;SDS011;50491;39.484;-8.540;2023-03-29T03:44:29;7.32;;;4.63;;
64186;SDS011;50491;39.484;-8.540;2023-03-29T03:49:24;8.37;;;4.10;;
64186;SDS011;50491;39.484;-8.540;2023-03-29T03:51:24;8.10;;;4.55;;
64186;SDS011;50491;39.484;-8.540;2023-03-29T04:00:53;11.98;;;5.25;;
64186;SDS011;50491;39.484;-8.540;2023-03-29T04:03:24;8.10;;;4.75;;
64186;SDS011;50491;39.484;-8.540;2023-03-29T04:05:47;8.57;;;4.72;;
64186;SDS011;50491;39.484;-8.540;2023-03-29T04:08:25;6.05;;;4.18;;
64186;SDS011;50491;39.484;-8.540;2023-03-29T04:10:51;7.07;;;4.60;;
64186;SDS011;50491;39.484;-8.540;2023-03-29T04:12:58;9.10;;;4.28;;
64186;SDS011;50491;39.484;-8.540;2023-03-29T04:15:02;9.18;;;4.63;;
64186;SDS011;50491;39.484;-8.540;2023-03-29T04:17:30;8.30;;;5.50;;
64186;SDS011;50491;39.484;-8.540;2023-03-29T04:19:49;11.20;;;6.28;;
64186;SDS011;50491;39.484;-8.540;2023-03-29T04:22:13;11.07;;;5.32;;
64186;SDS011;50491;39.484;-8.540;2023-03-29T04:24:14;11.18;;;6.18;;
64186;SDS011;50491;39.484;-8.540;2023-03-29T04:26:18;9.48;;;5.68;;
64186;SDS011;50491;39.484;-8.540;2023-03-29T04:28:28;10.18;;;6.20;;
64186;SDS011;50491;39.484;-8.540;2023-03-29T04:30:48;15.77;;;7.10;;
64186;SDS011;50491;39.484;-8.540;2023-03-29T04:32:53;16.25;;;6.53;;
64186;SDS011;50491;39.484;-8.540;2023-03-29T04:35:13;10.05;;;5.93;;
64186;SDS011;50491;39.484;-8.540;2023-03-29T04:37:13;10.63;;;5.53;;
64186;SDS011;50491;39.484;-8.540;2023-03-29T04:39:15;10.85;;;5.78;;
64186;SDS011;50491;39.484;-8.540;2023-03-29T04:41:21;7.95;;;5.00;;
64186;SDS011;50491;39.484;-8.540;2023-03-29T04:43:36;15.38;;;5.47;;
64186;SDS011;50491;39.484;-8.540;2023-03-29T04:45:53;9.90;;;5.05;;
64186;SDS011;50491;39.484;-8.540;2023-03-29T04:48:12;7.63;;;4.05;;
64186;SDS011;50491;39.484;-8.540;2023-03-29T04:50:31;5.53;;;3.75;;
64186;SDS011;50491;39.484;-8.540;2023-03-29T04:52:33;9.52;;;4.78;;
64186;SDS011;50491;39.484;-8.540;2023-03-29T04:54:36;7.13;;;5.10;;
64186;SDS011;50491;39.484;-8.540;2023-03-29T04:56:57;6.72;;;4.78;;
64186;SDS011;50491;39.484;-8.540;2023-03-29T04:59:01;15.57;;;4.90;;
64186;SDS011;50491;39.484;-8.540;2023-03-29T05:01:01;8.32;;;4.57;;
64186;SDS011;50491;39.484;-8.540;2023-03-29T05:03:08;7.85;;;4.20;;
64186;SDS011;50491;39.484;-8.540;2023-03-29T05:05:32;7.30;;;4.30;;
64186;SDS011;50491;39.484;-8.540;2023-03-29T05:07:35;15.48;;;5.20;;
64186;SDS011;50491;39.484;-8.540;2023-03-29T05:09:36;5.65;;;4.43;;
64186;SDS011;50491;39.484;-8.540;2023-03-29T05:11:38;10.18;;;4.05;;
64186;SDS011;50491;39.484;-8.540;2023-03-29T05:13:57;5.88;;;3.83;;
64186;SDS011;50491;39.484;-8.540;2023-03-29T05:16:04;8.27;;;4.72;;
64186;SDS011;50491;39.484;-8.540;2023-03-29T05:18:05;11.93;;;6.18;;
64186;SDS011;50491;39.484;-8.540;2023-03-29T05:20:25;8.52;;;5.88;;
64186;SDS011;50491;39.484;-8.540;2023-03-29T05:29:00;19.75;;;7.22;;
64186;SDS011;50491;39.484;-8.540;2023-03-29T05:31:02;11.57;;;6.78;;
64186;SDS011;50491;39.484;-8.540;2023-03-29T05:33:25;14.20;;;6.85;;
64186;SDS011;50491;39.484;-8.540;2023-03-29T05:35:26;7.38;;;5.95;;
64186;SDS011;50491;39.484;-8.540;2023-03-29T05:37:30;10.75;;;6.63;;
64186;SDS011;50491;39.484;-8.540;2023-03-29T05:39:51;12.25;;;5.47;;
64186;SDS011;50491;39.484;-8.540;2023-03-29T05:42:10;7.57;;;4.78;;
64186;SDS011;50491;39.484;-8.540;2023-03-29T05:44:33;11.70;;;5.43;;
64186;SDS011;50491;39.484;-8.540;2023-03-29T05:49:22;12.02;;;6.75;;
64186;SDS011;50491;39.484;-8.540;2023-03-29T05:51:41;14.02;;;7.30;;
64186;SDS011;50491;39.484;-8.540;2023-03-29T05:58:42;12.23;;;5.35;;
64186;SDS011;50491;39.484;-8.540;2023-03-29T06:01:02;6.20;;;4.75;;
64186;SDS011;50491;39.484;-8.540;2023-03-29T06:03:23;6.85;;;4.60;;
64186;SDS011;50491;39.484;-8.540;2023-03-29T06:05:29;8.10;;;5.47;;
64186;SDS011;50491;39.484;-8.540;2023-03-29T06:07:34;6.07;;;4.13;;
64186;SDS011;50491;39.484;-8.540;2023-03-29T06:10:00;7.53;;;5.00;;
64186;SDS011;50491;39.484;-8.540;2023-03-29T06:12:01;12.27;;;5.53;;
64186;SDS011;50491;39.484;-8.540;2023-03-29T06:14:21;7.43;;;4.68;;
64186;SDS011;50491;39.484;-8.540;2023-03-29T06:16:30;9.25;;;5.57;;
64186;SDS011;50491;39.484;-8.540;2023-03-29T06:18:32;11.88;;;5.18;;
64186;SDS011;50491;39.484;-8.540;2023-03-29T06:20:51;9.02;;;5.75;;
64186;SDS011;50491;39.484;-8.540;2023-03-29T06:22:53;11.27;;;6.15;;
64186;SDS011;50491;39.484;-8.540;2023-03-29T06:24:53;7.15;;;4.60;;
64186;SDS011;50491;39.484;-8.540;2023-03-29T06:27:00;11.15;;;5.78;;
64186;SDS011;50491;39.484;-8.540;2023-03-29T06:29:19;8.00;;;5.15;;
64186;SDS011;50491;39.484;-8.540;2023-03-29T06:31:40;8.52;;;5.05;;
64186;SDS011;50491;39.484;-8.540;2023-03-29T06:33:59;7.70;;;5.07;;
64186;SDS011;50491;39.484;-8.540;2023-03-29T06:36:19;20.85;;;5.90;;
64186;SDS011;50491;39.484;-8.540;2023-03-29T06:38:21;6.53;;;4.93;;
64186;SDS011;50491;39.484;-8.540;2023-03-29T06:40:49;9.57;;;5.13;;
64186;SDS011;50491;39.484;-8.540;2023-03-29T06:42:54;8.38;;;5.43;;
64186;SDS011;50491;39.484;-8.540;2023-03-29T06:45:15;7.25;;;4.25;;
64186;SDS011;50491;39.484;-8.540;2023-03-29T06:47:21;6.07;;;4.03;;
64186;SDS011;50491;39.484;-8.540;2023-03-29T06:49:23;8.52;;;4.97;;
64186;SDS011;50491;39.484;-8.540;2023-03-29T06:51:43;12.55;;;5.18;;
64186;SDS011;50491;39.484;-8.540;2023-03-29T06:53:44;9.07;;;4.80;;
64186;SDS011;50491;39.484;-8.540;2023-03-29T06:56:04;7.93;;;4.13;;
64186;SDS011;50491;39.484;-8.540;2023-03-29T06:58:26;6.97;;;4.15;;
64186;SDS011;50491;39.484;-8.540;2023-03-29T07:00:28;10.57;;;4.75;;
64186;SDS011;50491;39.484;-8.540;2023-03-29T07:02:48;10.77;;;4.65;;
64186;SDS011;50491;39.484;-8.540;2023-03-29T07:04:49;9.52;;;4.22;;
64186;SDS011;50491;39.484;-8.540;2023-03-29T07:07:07;6.45;;;4.60;;
64186;SDS011;50491;39.484;-8.540;2023-03-29T07:09:19;8.27;;;4.57;;
64186;SDS011;50491;39.484;-8.540;2023-03-29T07:11:40;9.60;;;4.43;;
64186;SDS011;50491;39.484;-8.540;2023-03-29T07:13:55;8.55;;;4.80;;
64186;SDS011;50491;39.484;-8.540;2023-03-29T07:15:56;9.80;;;4.53;;
64186;SDS011;50491;39.484;-8.540;2023-03-29T07:18:20;15.60;;;5.90;;
64186;SDS011;50491;39.484;-8.540;2023-03-29T07:20:21;8.02;;;4.57;;
64186;SDS011;50491;39.484;-8.540;2023-03-29T07:22:41;9.57;;;4.60;;
64186;SDS011;50491;39.484;-8.540;2023-03-29T07:24:43;15.77;;;6.00;;
64186;SDS011;50491;39.484;-8.540;2023-03-29T07:26:44;8.57;;;5.40;;
64186;SDS011;50491;39.484;-8.540;2023-03-29T07:29:03;8.82;;;4.88;;
64186;SDS011;50491;39.484;-8.540;2023-03-29T07:31:24;7.45;;;4.80;;
64186;SDS011;50491;39.484;-8.540;2023-03-29T07:33:31;16.02;;;5.00;;
64186;SDS011;50491;39.484;-8.540;2023-03-29T07:35:37;6.47;;;4.22;;
64186;SDS011;50491;39.484;-8.540;2023-03-29T07:37:57;11.70;;;6.15;;
64186;SDS011;50491;39.484;-8.540;2023-03-29T07:40:17;9.30;;;5.22;;
64186;SDS011;50491;39.484;-8.540;2023-03-29T07:42:30;9.43;;;5.30;;
64186;SDS011;50491;39.484;-8.540;2023-03-29T07:44:32;17.08;;;6.20;;
64186;SDS011;50491;39.484;-8.540;2023-03-29T07:46:33;11.73;;;5.25;;
64186;SDS011;50491;39.484;-8.540;2023-03-29T07:48:35;11.15;;;5.60;;
64186;SDS011;50491;39.484;-8.540;2023-03-29T07:50:47;10.50;;;5.65;;
64186;SDS011;50491;39.484;-8.540;2023-03-29T07:52:49;13.15;;;6.53;;
64186;SDS011;50491;39.484;-8.540;2023-03-29T07:54:50;11.55;;;4.88;;
64186;SDS011;50491;39.484;-8.540;2023-03-29T07:57:11;13.85;;;5.47;;
64186;SDS011;50491;39.484;-8.540;2023-03-29T07:59:30;11.75;;;6.25;;
64186;SDS011;50491;39.484;-8.540;2023-03-29T08:01:40;7.50;;;4.65;;
64186;SDS011;50491;39.484;-8.540;2023-03-29T08:03:53;7.85;;;4.95;;
64186;SDS011;50491;39.484;-8.540;2023-03-29T08:08:19;12.07;;;5.47;;
64186;SDS011;50491;39.484;-8.540;2023-03-29T08:10:30;8.43;;;5.00;;
64186;SDS011;50491;39.484;-8.540;2023-03-29T08:12:42;8.40;;;4.28;;
64186;SDS011;50491;39.484;-8.540;2023-03-29T08:14:44;7.38;;;4.50;;
64186;SDS011;50491;39.484;-8.540;2023-03-29T08:16:54;9.00;;;4.80;;
64186;SDS011;50491;39.484;-8.540;2023-03-29T08:19:14;11.48;;;4.30;;
64186;SDS011;50491;39.484;-8.540;2023-03-29T08:21:27;8.50;;;4.40;;
64186;SDS011;50491;39.484;-8.540;2023-03-29T08:23:27;6.88;;;4.47;;
64186;SDS011;50491;39.484;-8.540;2023-03-29T08:25:48;13.85;;;5.28;;
64186;SDS011;50491;39.484;-8.540;2023-03-29T08:27:49;8.55;;;4.50;;
64186;SDS011;50491;39.484;-8.540;2023-03-29T08:29:59;5.93;;;3.85;;
64186;SDS011;50491;39.484;-8.540;2023-03-29T08:32:00;9.10;;;4.78;;
64186;SDS011;50491;39.484;-8.540;2023-03-29T08:34:19;8.75;;;4.22;;
64186;SDS011;50491;39.484;-8.540;2023-03-29T08:38:42;5.55;;;3.45;;
64186;SDS011;50491;39.484;-8.540;2023-03-29T08:40:46;9.60;;;4.05;;
64186;SDS011;50491;39.484;-8.540;2023-03-29T08:48:32;10.88;;;5.95;;
64186;SDS011;50491;39.484;-8.540;2023-03-29T08:50:43;8.18;;;4.53;;
64186;SDS011;50491;39.484;-8.540;2023-03-29T08:52:52;9.40;;;4.63;;
64186;SDS011;50491;39.484;-8.540;2023-03-29T08:55:23;10.95;;;5.18;;
64186;SDS011;50491;39.484;-8.540;2023-03-29T08:57:46;10.73;;;5.72;;
64186;SDS011;50491;39.484;-8.540;2023-03-29T08:59:59;11.07;;;6.07;;
64186;SDS011;50491;39.484;-8.540;2023-03-29T09:02:02;9.80;;;4.90;;
64186;SDS011;50491;39.484;-8.540;2023-03-29T09:04:26;13.23;;;5.57;;
64186;SDS011;50491;39.484;-8.540;2023-03-29T09:07:06;18.02;;;5.85;;
64186;SDS011;50491;39.484;-8.540;2023-03-29T09:09:14;9.32;;;5.03;;
64186;SDS011;50491;39.484;-8.540;2023-03-29T09:15:53;9.20;;;4.50;;
64186;SDS011;50491;39.484;-8.540;2023-03-29T09:18:51;11.32;;;4.38;;
64186;SDS011;50491;39.484;-8.540;2023-03-29T09:21:14;10.27;;;5.03;;
64186;SDS011;50491;39.484;-8.540;2023-03-29T09:26:26;10.73;;;5.35;;
64186;SDS011;50491;39.484;-8.540;2023-03-29T09:29:05;12.75;;;4.28;;
64186;SDS011;50491;39.484;-8.540;2023-03-29T09:31:13;14.45;;;4.28;;
64186;SDS011;50491;39.484;-8.540;2023-03-29T09:33:21;7.47;;;3.83;;
64186;SDS011;50491;39.484;-8.540;2023-03-29T09:38:24;8.50;;;3.80;;
64186;SDS011;50491;39.484;-8.540;2023-03-29T09:40:44;7.47;;;4.07;;
64186;SDS011;50491;39.484;-8.540;2023-03-29T09:42:54;8.40;;;3.58;;
64186;SDS011;50491;39.484;-8.540;2023-03-29T09:44:59;11.32;;;3.30;;
64186;SDS011;50491;39.484;-8.540;2023-03-29T09:49:40;8.15;;;4.05;;
64186;SDS011;50491;39.484;-8.540;2023-03-29T09:52:03;9.77;;;3.88;;
64186;SDS011;50491;39.484;-8.540;2023-03-29T09:54:26;10.27;;;3.97;;
64186;SDS011;50491;39.484;-8.540;2023-03-29T09:56:46;7.40;;;3.75;;
64186;SDS011;50491;39.484;-8.540;2023-03-29T09:59:06;8.85;;;3.20;;
64186;SDS011;50491;39.484;-8.540;2023-03-29T10:01:35;11.77;;;4.18;;
64186;SDS011;50491;39.484;-8.540;2023-03-29T10:03:57;5.95;;;3.53;;
64186;SDS011;50491;39.484;-8.540;2023-03-29T10:13:49;9.63;;;3.80;;
64186;SDS011;50491;39.484;-8.540;2023-03-29T10:18:05;9.90;;;3.97;;
64186;SDS011;50491;39.484;-8.540;2023-03-29T10:20:12;6.55;;;3.72;;
64186;SDS011;50491;39.484;-8.540;2023-03-29T10:22:33;6.68;;;3.83;;
64186;SDS011;50491;39.484;-8.540;2023-03-29T10:24:36;8.80;;;4.30;;
64186;SDS011;50491;39.484;-8.540;2023-03-29T10:26:37;8.48;;;3.63;;
64186;SDS011;50491;39.484;-8.540;2023-03-29T10:28:56;5.38;;;3.63;;
64186;SDS011;50491;39.484;-8.540;2023-03-29T10:31:19;7.72;;;3.75;;
64186;SDS011;50491;39.484;-8.540;2023-03-29T10:33:39;14.82;;;4.03;;
64186;SDS011;50491;39.484;-8.540;2023-03-29T10:35:40;7.55;;;3.53;;
64186;SDS011;50491;39.484;-8.540;2023-03-29T10:37:42;5.43;;;3.10;;
64186;SDS011;50491;39.484;-8.540;2023-03-29T10:40:03;6.35;;;2.85;;
64186;SDS011;50491;39.484;-8.540;2023-03-29T10:42:05;7.13;;;3.08;;
64186;SDS011;50491;39.484;-8.540;2023-03-29T10:44:22;6.25;;;3.45;;
64186;SDS011;50491;39.484;-8.540;2023-03-29T10:46:46;5.10;;;2.67;;
64186;SDS011;50491;39.484;-8.540;2023-03-29T10:49:16;6.90;;;2.63;;
64186;SDS011;50491;39.484;-8.540;2023-03-29T10:51:18;8.52;;;2.88;;
64186;SDS011;50491;39.484;-8.540;2023-03-29T10:53:32;5.70;;;2.85;;
64186;SDS011;50491;39.484;-8.540;2023-03-29T11:01:20;6.95;;;2.30;;
64186;SDS011;50491;39.484;-8.540;2023-03-29T11:03:31;5.68;;;2.00;;
64186;SDS011;50491;39.484;-8.540;2023-03-29T11:15:25;9.67;;;2.63;;
64186;SDS011;50491;39.484;-8.540;2023-03-29T11:17:42;8.45;;;2.80;;
64186;SDS011;50491;39.484;-8.540;2023-03-29T11:20:15;8.57;;;2.63;;
64186;SDS011;50491;39.484;-8.540;2023-03-29T11:32:13;4.38;;;1.00;;
64186;SDS011;50491;39.484;-8.540;2023-03-29T11:36:42;2.20;;;1.17;;
64186;SDS011;50491;39.484;-8.540;2023-03-29T11:39:25;2.60;;;1.10;;
64186;SDS011;50491;39.484;-8.540;2023-03-29T11:41:48;2.75;;;1.02;;
64186;SDS011;50491;39.484;-8.540;2023-03-29T11:46:02;4.90;;;1.13;;
64186;SDS011;50491;39.484;-8.540;2023-03-29T11:48:10;7.25;;;1.63;;
64186;SDS011;50491;39.484;-8.540;2023-03-29T11:50:22;1.75;;;0.98;;
64186;SDS011;50491;39.484;-8.540;2023-03-29T11:52:30;4.90;;;1.45;;
64186;SDS011;50491;39.484;-8.540;2023-03-29T11:55:00;3.13;;;1.58;;
64186;SDS011;50491;39.484;-8.540;2023-03-29T12:01:47;2.13;;;1.00;;
64186;SDS011;50491;39.484;-8.540;2023-03-29T12:04:00;4.65;;;1.52;;
64186;SDS011;50491;39.484;-8.540;2023-03-29T12:06:06;7.82;;;1.67;;
64186;SDS011;50491;39.484;-8.540;2023-03-29T12:10:18;6.55;;;1.25;;
64186;SDS011;50491;39.484;-8.540;2023-03-29T12:12:22;3.17;;;0.93;;
64186;SDS011;50491;39.484;-8.540;2023-03-29T12:14:27;13.00;;;1.40;;
64186;SDS011;50491;39.484;-8.540;2023-03-29T12:19:18;2.10;;;1.35;;
64186;SDS011;50491;39.484;-8.540;2023-03-29T12:21:52;7.38;;;1.55;;
64186;SDS011;50491;39.484;-8.540;2023-03-29T12:23:55;7.97;;;1.37;;
64186;SDS011;50491;39.484;-8.540;2023-03-29T12:26:20;8.75;;;1.20;;
64186;SDS011;50491;39.484;-8.540;2023-03-29T12:28:43;4.35;;;1.10;;
64186;SDS011;50491;39.484;-8.540;2023-03-29T12:31:08;3.38;;;1.38;;
64186;SDS011;50491;39.484;-8.540;2023-03-29T12:33:28;7.43;;;1.55;;
64186;SDS011;50491;39.484;-8.540;2023-03-29T12:36:08;2.83;;;0.90;;
64186;SDS011;50491;39.484;-8.540;2023-03-29T12:41:00;2.88;;;1.20;;
64186;SDS011;50491;39.484;-8.540;2023-03-29T12:46:07;4.80;;;1.27;;
64186;SDS011;50491;39.484;-8.540;2023-03-29T12:48:13;3.38;;;1.10;;
64186;SDS011;50491;39.484;-8.540;2023-03-29T12:52:35;5.50;;;1.30;;
64186;SDS011;50491;39.484;-8.540;2023-03-29T12:54:36;10.40;;;1.20;;
64186;SDS011;50491;39.484;-8.540;2023-03-29T12:59:14;4.60;;;0.95;;
64186;SDS011;50491;39.484;-8.540;2023-03-29T13:01:29;4.45;;;1.38;;
64186;SDS011;50491;39.484;-8.540;2023-03-29T13:05:57;3.97;;;0.95;;
64186;SDS011;50491;39.484;-8.540;2023-03-29T13:08:09;3.20;;;1.02;;
64186;SDS011;50491;39.484;-8.540;2023-03-29T13:10:36;5.00;;;1.38;;
64186;SDS011;50491;39.484;-8.540;2023-03-29T13:12:40;3.03;;;0.82;;
64186;SDS011;50491;39.484;-8.540;2023-03-29T13:14:45;2.42;;;0.82;;
64186;SDS011;50491;39.484;-8.540;2023-03-29T13:16:50;3.63;;;1.00;;
64186;SDS011;50491;39.484;-8.540;2023-03-29T13:28:13;3.10;;;0.93;;
64186;SDS011;50491;39.484;-8.540;2023-03-29T13:35:35;4.80;;;1.10;;
64186;SDS011;50491;39.484;-8.540;2023-03-29T13:39:52;5.40;;;1.00;;
64186;SDS011;50491;39.484;-8.540;2023-03-29T13:42:05;3.72;;;1.08;;
64186;SDS011;50491;39.484;-8.540;2023-03-29T13:48:44;3.75;;;1.00;;
64186;SDS011;50491;39.484;-8.540;2023-03-29T13:53:59;1.83;;;1.38;;
64186;SDS011;50491;39.484;-8.540;2023-03-29T13:56:06;2.88;;;1.13;;
64186;SDS011;50491;39.484;-8.540;2023-03-29T14:00:31;2.47;;;0.63;;
64186;SDS011;50491;39.484;-8.540;2023-03-29T14:04:58;1.88;;;0.80;;
64186;SDS011;50491;39.484;-8.540;2023-03-29T14:07:01;3.60;;;1.15;;
64186;SDS011;50491;39.484;-8.540;2023-03-29T14:09:06;2.50;;;1.10;;
64186;SDS011;50491;39.484;-8.540;2023-03-29T14:11:18;2.40;;;0.98;;
64186;SDS011;50491;39.484;-8.540;2023-03-29T14:16:07;6.53;;;1.55;;
64186;SDS011;50491;39.484;-8.540;2023-03-29T14:18:10;2.17;;;0.95;;
64186;SDS011;50491;39.484;-8.540;2023-03-29T14:20:30;3.35;;;1.20;;
64186;SDS011;50491;39.484;-8.540;2023-03-29T14:22:51;2.50;;;1.15;;
64186;SDS011;50491;39.484;-8.540;2023-03-29T14:24:53;2.50;;;0.80;;
64186;SDS011;50491;39.484;-8.540;2023-03-29T14:26:54;4.30;;;0.93;;
64186;SDS011;50491;39.484;-8.540;2023-03-29T14:28:55;2.72;;;0.85;;
64186;SDS011;50491;39.484;-8.540;2023-03-29T14:30:56;4.35;;;1.50;;
64186;SDS011;50491;39.484;-8.540;2023-03-29T14:33:50;8.98;;;1.00;;
64186;SDS011;50491;39.484;-8.540;2023-03-29T14:35:42;3.63;;;0.90;;
64186;SDS011;50491;39.484;-8.540;2023-03-29T14:37:43;5.03;;;1.10;;
64186;SDS011;50491;39.484;-8.540;2023-03-29T14:39:45;5.25;;;1.50;;
64186;SDS011;50491;39.484;-8.540;2023-03-29T14:41:50;7.43;;;1.33;;
64186;SDS011;50491;39.484;-8.540;2023-03-29T14:43:53;4.47;;;1.20;;
64186;SDS011;50491;39.484;-8.540;2023-03-29T14:45:54;2.92;;;1.10;;
64186;SDS011;50491;39.484;-8.540;2023-03-29T14:48:14;3.20;;;1.30;;
64186;SDS011;50491;39.484;-8.540;2023-03-29T14:50:21;5.22;;;1.25;;
64186;SDS011;50491;39.484;-8.540;2023-03-29T14:52:29;6.25;;;1.15;;
64186;SDS011;50491;39.484;-8.540;2023-03-29T14:54:50;5.80;;;1.30;;
64186;SDS011;50491;39.484;-8.540;2023-03-29T14:57:12;5.10;;;1.83;;
64186;SDS011;50491;39.484;-8.540;2023-03-29T14:59:35;5.00;;;1.13;;
64186;SDS011;50491;39.484;-8.540;2023-03-29T15:01:40;7.53;;;1.23;;
64186;SDS011;50491;39.484;-8.540;2023-03-29T15:04:04;4.22;;;1.10;;
64186;SDS011;50491;39.484;-8.540;2023-03-29T15:08:29;3.60;;;1.48;;
64186;SDS011;50491;39.484;-8.540;2023-03-29T15:10:32;2.63;;;1.13;;
64186;SDS011;50491;39.484;-8.540;2023-03-29T15:12:33;1.80;;;0.93;;
64186;SDS011;50491;39.484;-8.540;2023-03-29T15:14:42;2.75;;;1.13;;
64186;SDS011;50491;39.484;-8.540;2023-03-29T15:17:06;4.47;;;1.60;;
64186;SDS011;50491;39.484;-8.540;2023-03-29T15:19:44;6.40;;;1.00;;
64186;SDS011;50491;39.484;-8.540;2023-03-29T15:21:46;4.72;;;1.17;;
64186;SDS011;50491;39.484;-8.540;2023-03-29T15:23:55;3.78;;;1.05;;
64186;SDS011;50491;39.484;-8.540;2023-03-29T15:25:57;2.45;;;1.30;;
64186;SDS011;50491;39.484;-8.540;2023-03-29T15:28:19;8.73;;;1.70;;
64186;SDS011;50491;39.484;-8.540;2023-03-29T15:30:46;5.45;;;1.20;;
64186;SDS011;50491;39.484;-8.540;2023-03-29T15:33:08;2.15;;;1.15;;
64186;SDS011;50491;39.484;-8.540;2023-03-29T15:35:21;4.25;;;0.85;;
64186;SDS011;50491;39.484;-8.540;2023-03-29T15:37:22;3.15;;;1.20;;
64186;SDS011;50491;39.484;-8.540;2023-03-29T15:39:23;2.55;;;0.90;;
64186;SDS011;50491;39.484;-8.540;2023-03-29T15:41:24;3.05;;;0.90;;
64186;SDS011;50491;39.484;-8.540;2023-03-29T15:43:26;2.58;;;0.75;;
64186;SDS011;50491;39.484;-8.540;2023-03-29T15:45:26;5.07;;;1.45;;
64186;SDS011;50491;39.484;-8.540;2023-03-29T15:47:27;5.35;;;1.17;;
64186;SDS011;50491;39.484;-8.540;2023-03-29T15:49:28;11.85;;;1.23;;
64186;SDS011;50491;39.484;-8.540;2023-03-29T15:51:48;6.35;;;1.00;;
64186;SDS011;50491;39.484;-8.540;2023-03-29T15:53:48;3.47;;;1.02;;
64186;SDS011;50491;39.484;-8.540;2023-03-29T15:55:50;3.55;;;1.42;;
64186;SDS011;50491;39.484;-8.540;2023-03-29T15:58:11;2.55;;;1.08;;
64186;SDS011;50491;39.484;-8.540;2023-03-29T16:00:14;2.78;;;1.13;;
64186;SDS011;50491;39.484;-8.540;2023-03-29T16:02:16;5.55;;;1.35;;
64186;SDS011;50491;39.484;-8.540;2023-03-29T16:04:20;3.75;;;1.15;;
64186;SDS011;50491;39.484;-8.540;2023-03-29T16:06:21;7.57;;;1.23;;
64186;SDS011;50491;39.484;-8.540;2023-03-29T16:08:23;6.68;;;1.20;;
64186;SDS011;50491;39.484;-8.540;2023-03-29T16:10:42;4.60;;;1.05;;
64186;SDS011;50491;39.484;-8.540;2023-03-29T16:17:53;5.35;;;1.00;;
64186;SDS011;50491;39.484;-8.540;2023-03-29T16:19:54;1.10;;;0.93;;
64186;SDS011;50491;39.484;-8.540;2023-03-29T16:21:55;4.70;;;1.23;;
64186;SDS011;50491;39.484;-8.540;2023-03-29T16:23:55;1.80;;;1.33;;